Skip Navigation LinksHome page > Weather > Current weather Skip Navigation Links

Current Weather

Indira Gandhi Intl Apt, New Delhi, India

For information only: do not use for flight planning or navigation.
Latest weather
Observation time Wednesday, May 27, 2015 10:30 PM IST
Local time Wednesday, May 27, 2015 11:10 PM IST
Flight conditions Instrument Meteorological Conditions
Winds
Wind direction West (270°)
Wind speed 3 mph
Visibility 1.6 mi.
Present weather haze
Sky condition
Ceiling unlimited
Temperature 95°F
Dewpoint 39°F
Altimeter 29.62 in.Hg
Derived measurements
Relative humidity 15%
Heat index 95°F
Density altitude 3500 ft.
Remarks
No significant changes expected in the next two hours.
METAR VIDP 271700Z 27003KT 2500 HZ NSC 35/04 Q1003 NOSIG

Settings

Location code

InnerDrive.Weather 4.0.5567.0 Release CLR 4.0.30319.34014
Copyright ©2015 Inner Drive Technology. All rights reserved. Portions Copyright ©1986-2015 David Braverman.

Find weather

Site navigation


Skip Navigation Links

Place info

Page info

PayPal - The safer, easier way to pay online!

Return home.

Copyright ©2015 Inner Drive Technology. Purveyors of fine, hand-crafted computer software. Page printed 2015-05-27T17:40:02 UTC.